sensor_id;sensor_type;location;lat;lon;timestamp;pressure;altitude;pressure_sealevel;temperature;humidity
21433;BME280;18592;49.708;10.900;2022-10-14T00:01:46;98771.25;;;17.15;58.18
21433;BME280;18592;49.708;10.900;2022-10-14T00:03:49;98775.13;;;17.14;58.18
21433;BME280;18592;49.708;10.900;2022-10-14T00:05:53;98772.66;;;17.13;58.23
21433;BME280;18592;49.708;10.900;2022-10-14T00:07:54;98778.16;;;17.13;58.14
21433;BME280;18592;49.708;10.900;2022-10-14T00:09:56;98766.34;;;17.12;58.41
21433;BME280;18592;49.708;10.900;2022-10-14T00:11:57;98778.47;;;17.11;58.40
21433;BME280;18592;49.708;10.900;2022-10-14T00:14:08;98776.53;;;17.12;58.26
21433;BME280;18592;49.708;10.900;2022-10-14T00:16:18;98775.69;;;17.11;58.23
21433;BME280;18592;49.708;10.900;2022-10-14T00:18:20;98772.41;;;17.09;58.30
21433;BME280;18592;49.708;10.900;2022-10-14T00:20:23;98779.84;;;17.09;58.32
21433;BME280;18592;49.708;10.900;2022-10-14T00:22:25;98774.03;;;17.10;58.29
21433;BME280;18592;49.708;10.900;2022-10-14T00:24:27;98776.28;;;17.08;58.14
21433;BME280;18592;49.708;10.900;2022-10-14T00:26:34;98773.53;;;17.08;58.21
21433;BME280;18592;49.708;10.900;2022-10-14T00:28:36;98773.53;;;17.08;58.11
21433;BME280;18592;49.708;10.900;2022-10-14T00:30:38;98775.44;;;17.08;58.22
21433;BME280;18592;49.708;10.900;2022-10-14T00:32:39;98777.41;;;17.07;58.10
21433;BME280;18592;49.708;10.900;2022-10-14T00:34:42;98774.66;;;17.07;58.13
21433;BME280;18592;49.708;10.900;2022-10-14T00:36:44;98774.66;;;17.07;58.29
21433;BME280;18592;49.708;10.900;2022-10-14T00:38:53;98771.91;;;17.07;58.20
21433;BME280;18592;49.708;10.900;2022-10-14T00:40:55;98770.25;;;17.06;57.98
21433;BME280;18592;49.708;10.900;2022-10-14T00:42:56;98770.75;;;17.08;57.98
21433;BME280;18592;49.708;10.900;2022-10-14T00:45:12;98779.03;;;17.08;58.16
21433;BME280;18592;49.708;10.900;2022-10-14T00:47:15;98764.44;;;17.08;58.00
21433;BME280;18592;49.708;10.900;2022-10-14T00:49:24;98773.53;;;17.08;58.03
21433;BME280;18592;49.708;10.900;2022-10-14T00:51:26;98776.00;;;17.10;57.96
21433;BME280;18592;49.708;10.900;2022-10-14T00:53:28;98763.31;;;17.09;57.96
21433;BME280;18592;49.708;10.900;2022-10-14T00:55:30;98765.25;;;17.08;58.01
21433;BME280;18592;49.708;10.900;2022-10-14T00:57:34;98770.75;;;17.08;58.10
21433;BME280;18592;49.708;10.900;2022-10-14T00:59:37;98770.75;;;17.08;57.95
21433;BME280;18592;49.708;10.900;2022-10-14T01:01:39;98777.09;;;17.09;58.30
21433;BME280;18592;49.708;10.900;2022-10-14T01:03:41;98760.88;;;17.07;58.23
21433;BME280;18592;49.708;10.900;2022-10-14T01:05:52;98762.81;;;17.07;58.30
21433;BME280;18592;49.708;10.900;2022-10-14T01:08:02;98769.13;;;17.07;58.22
21433;BME280;18592;49.708;10.900;2022-10-14T01:10:11;98765.25;;;17.08;58.24
21433;BME280;18592;49.708;10.900;2022-10-14T01:12:31;98757.28;;;17.07;58.29
21433;BME280;18592;49.708;10.900;2022-10-14T01:15:05;98766.38;;;17.07;58.34
21433;BME280;18592;49.708;10.900;2022-10-14T01:17:29;98768.06;;;17.03;58.65
21433;BME280;18592;49.708;10.900;2022-10-14T01:19:56;98762.53;;;17.03;58.65
21433;BME280;18592;49.708;10.900;2022-10-14T01:22:15;98765.81;;;17.05;58.56
21433;BME280;18592;49.708;10.900;2022-10-14T01:24:50;98765.03;;;17.05;58.63
21433;BME280;18592;49.708;10.900;2022-10-14T01:27:09;98757.03;;;17.03;58.75
21433;BME280;18592;49.708;10.900;2022-10-14T01:31:59;98770.53;;;17.05;58.68
21433;BME280;18592;49.708;10.900;2022-10-14T01:34:06;98766.94;;;17.04;58.76
21433;BME280;18592;49.708;10.900;2022-10-14T01:36:37;98764.19;;;17.04;59.21
21433;BME280;18592;49.708;10.900;2022-10-14T01:38:50;98758.69;;;17.04;58.67
21433;BME280;18592;49.708;10.900;2022-10-14T01:41:10;98756.47;;;17.06;58.58
21433;BME280;18592;49.708;10.900;2022-10-14T01:43:15;98755.63;;;17.06;58.64
21433;BME280;18592;49.708;10.900;2022-10-14T01:45:21;98748.19;;;17.06;58.69
21433;BME280;18592;49.708;10.900;2022-10-14T01:47:25;98755.38;;;17.07;58.63
21433;BME280;18592;49.708;10.900;2022-10-14T01:49:35;98752.31;;;17.09;58.60
21433;BME280;18592;49.708;10.900;2022-10-14T01:51:51;98749.03;;;17.07;58.65
21433;BME280;18592;49.708;10.900;2022-10-14T01:54:06;98742.38;;;17.08;58.70
21433;BME280;18592;49.708;10.900;2022-10-14T01:56:11;98746.50;;;17.10;58.50
21433;BME280;18592;49.708;10.900;2022-10-14T01:58:15;98745.41;;;17.11;58.57
21433;BME280;18592;49.708;10.900;2022-10-14T02:00:18;98742.66;;;17.11;58.60
21433;BME280;18592;49.708;10.900;2022-10-14T02:02:20;98741.53;;;17.12;58.50
21433;BME280;18592;49.708;10.900;2022-10-14T02:04:23;98741.53;;;17.12;58.56
21433;BME280;18592;49.708;10.900;2022-10-14T02:06:36;98746.22;;;17.12;58.75
21433;BME280;18592;49.708;10.900;2022-10-14T02:11:20;98738.78;;;17.12;58.66
21433;BME280;18592;49.708;10.900;2022-10-14T02:13:41;98741.53;;;17.12;58.67
21433;BME280;18592;49.708;10.900;2022-10-14T02:19:57;98731.31;;;17.13;58.59
21433;BME280;18592;49.708;10.900;2022-10-14T02:22:07;98727.47;;;17.14;58.70
21433;BME280;18592;49.708;10.900;2022-10-14T02:24:25;98725.81;;;17.13;58.69
21433;BME280;18592;49.708;10.900;2022-10-14T02:26:31;98727.78;;;17.12;58.67
21433;BME280;18592;49.708;10.900;2022-10-14T02:28:34;98728.31;;;17.14;58.54
21433;BME280;18592;49.708;10.900;2022-10-14T02:30:44;98725.53;;;17.14;58.61
21433;BME280;18592;49.708;10.900;2022-10-14T02:32:51;98729.41;;;17.13;58.57
21433;BME280;18592;49.708;10.900;2022-10-14T02:34:57;98730.22;;;17.14;58.70
21433;BME280;18592;49.708;10.900;2022-10-14T02:37:00;98728.31;;;17.14;58.63
21433;BME280;18592;49.708;10.900;2022-10-14T02:39:13;98732.69;;;17.15;58.45
21433;BME280;18592;49.708;10.900;2022-10-14T02:41:18;98730.22;;;17.14;58.47
21433;BME280;18592;49.708;10.900;2022-10-14T02:43:22;98733.81;;;17.14;58.71
21433;BME280;18592;49.708;10.900;2022-10-14T02:45:25;98725.53;;;17.14;58.79
21433;BME280;18592;49.708;10.900;2022-10-14T02:47:28;98721.97;;;17.14;58.66
21433;BME280;18592;49.708;10.900;2022-10-14T02:49:30;98720.03;;;17.14;58.65
21433;BME280;18592;49.708;10.900;2022-10-14T02:51:33;98725.53;;;17.14;58.81
21433;BME280;18592;49.708;10.900;2022-10-14T02:53:35;98721.66;;;17.15;58.65
21433;BME280;18592;49.708;10.900;2022-10-14T02:55:36;98715.34;;;17.15;58.64
21433;BME280;18592;49.708;10.900;2022-10-14T02:57:39;98713.69;;;17.14;58.82
21433;BME280;18592;49.708;10.900;2022-10-14T02:59:41;98713.69;;;17.14;58.66
21433;BME280;18592;49.708;10.900;2022-10-14T03:01:42;98719.22;;;17.14;58.67
21433;BME280;18592;49.708;10.900;2022-10-14T03:03:44;98710.94;;;17.14;58.70
21433;BME280;18592;49.708;10.900;2022-10-14T03:05:46;98712.59;;;17.15;58.68
21433;BME280;18592;49.708;10.900;2022-10-14T03:07:49;98710.94;;;17.14;58.72
21433;BME280;18592;49.708;10.900;2022-10-14T03:09:54;98708.19;;;17.14;58.71
21433;BME280;18592;49.708;10.900;2022-10-14T03:11:57;98711.78;;;17.14;58.81
21433;BME280;18592;49.708;10.900;2022-10-14T03:13:59;98710.94;;;17.14;58.60
21433;BME280;18592;49.708;10.900;2022-10-14T03:16:01;98708.19;;;17.14;58.69
21433;BME280;18592;49.708;10.900;2022-10-14T03:18:02;98701.84;;;17.13;58.71
21433;BME280;18592;49.708;10.900;2022-10-14T03:20:14;98709.28;;;17.13;58.72
21433;BME280;18592;49.708;10.900;2022-10-14T03:22:21;98711.25;;;17.12;58.88
21433;BME280;18592;49.708;10.900;2022-10-14T03:24:24;98711.25;;;17.12;58.84
21433;BME280;18592;49.708;10.900;2022-10-14T03:26:45;98710.69;;;17.10;58.75
21433;BME280;18592;49.708;10.900;2022-10-14T03:28:48;98708.75;;;17.11;58.73
21433;BME280;18592;49.708;10.900;2022-10-14T03:30:54;98702.72;;;17.09;58.82
21433;BME280;18592;49.708;10.900;2022-10-14T03:33:16;98703.81;;;17.08;59.04
21433;BME280;18592;49.708;10.900;2022-10-14T03:35:33;98701.38;;;17.06;59.01
21433;BME280;18592;49.708;10.900;2022-10-14T03:37:41;98699.72;;;17.05;59.03
21433;BME280;18592;49.708;10.900;2022-10-14T03:39:43;98692.28;;;17.06;59.09
21433;BME280;18592;49.708;10.900;2022-10-14T03:41:46;98698.09;;;17.04;59.14
21433;BME280;18592;49.708;10.900;2022-10-14T03:43:51;98693.16;;;17.01;59.20
21433;BME280;18592;49.708;10.900;2022-10-14T03:45:53;98699.25;;;16.98;59.22
21433;BME280;18592;49.708;10.900;2022-10-14T03:47:58;98692.38;;;16.96;59.29
21433;BME280;18592;49.708;10.900;2022-10-14T03:50:00;98699.28;;;16.93;59.34
21433;BME280;18592;49.708;10.900;2022-10-14T03:52:11;98689.97;;;16.89;59.36
21433;BME280;18592;49.708;10.900;2022-10-14T03:54:17;98694.94;;;16.87;59.31
21433;BME280;18592;49.708;10.900;2022-10-14T03:56:22;98693.03;;;16.83;59.46
21433;BME280;18592;49.708;10.900;2022-10-14T03:58:28;98689.75;;;16.81;59.31
21433;BME280;18592;49.708;10.900;2022-10-14T04:00:35;98696.66;;;16.78;59.21
21433;BME280;18592;49.708;10.900;2022-10-14T04:02:53;98688.97;;;16.75;59.26
21433;BME280;18592;49.708;10.900;2022-10-14T04:05:07;98688.44;;;16.73;59.36
21433;BME280;18592;49.708;10.900;2022-10-14T04:07:09;98683.50;;;16.70;59.32
21433;BME280;18592;49.708;10.900;2022-10-14T04:09:11;98684.63;;;16.69;59.27
21433;BME280;18592;49.708;10.900;2022-10-14T04:11:15;98680.53;;;16.67;59.40
21433;BME280;18592;49.708;10.900;2022-10-14T04:13:19;98679.69;;;16.66;59.30
21433;BME280;18592;49.708;10.900;2022-10-14T04:15:21;98677.22;;;16.65;59.47
21433;BME280;18592;49.708;10.900;2022-10-14T04:17:42;98671.47;;;16.61;59.21
21433;BME280;18592;49.708;10.900;2022-10-14T04:19:49;98672.56;;;16.60;59.38
21433;BME280;18592;49.708;10.900;2022-10-14T04:21:51;98687.47;;;16.59;59.32
21433;BME280;18592;49.708;10.900;2022-10-14T04:23:55;98683.34;;;16.57;59.24
21433;BME280;18592;49.708;10.900;2022-10-14T04:26:09;98677.28;;;16.55;59.38
21433;BME280;18592;49.708;10.900;2022-10-14T04:28:12;98672.34;;;16.51;59.39
21433;BME280;18592;49.708;10.900;2022-10-14T04:30:22;98675.38;;;16.50;59.48
21433;BME280;18592;49.708;10.900;2022-10-14T04:32:28;98674.84;;;16.48;59.39
21433;BME280;18592;49.708;10.900;2022-10-14T04:34:29;98677.06;;;16.46;59.41
21433;BME280;18592;49.708;10.900;2022-10-14T04:36:32;98667.16;;;16.45;59.61
21433;BME280;18592;49.708;10.900;2022-10-14T04:38:35;98670.47;;;16.42;59.49
21433;BME280;18592;49.708;10.900;2022-10-14T04:40:43;98666.09;;;16.41;59.46
21433;BME280;18592;49.708;10.900;2022-10-14T04:42:46;98668.84;;;16.41;59.38
21433;BME280;18592;49.708;10.900;2022-10-14T04:44:54;98665.84;;;16.37;59.53
21433;BME280;18592;49.708;10.900;2022-10-14T04:47:04;98667.75;;;16.37;59.51
21433;BME280;18592;49.708;10.900;2022-10-14T04:49:07;98673.56;;;16.35;59.59
21433;BME280;18592;49.708;10.900;2022-10-14T04:51:13;98668.34;;;16.34;59.50
21433;BME280;18592;49.708;10.900;2022-10-14T04:53:34;98659.53;;;16.32;59.64
21433;BME280;18592;49.708;10.900;2022-10-14T04:56:00;98664.50;;;16.30;59.59
21433;BME280;18592;49.708;10.900;2022-10-14T04:58:02;98658.47;;;16.28;59.74
21433;BME280;18592;49.708;10.900;2022-10-14T05:00:14;98660.16;;;16.24;59.57
21433;BME280;18592;49.708;10.900;2022-10-14T05:02:17;98662.91;;;16.24;59.82
21433;BME280;18592;49.708;10.900;2022-10-14T05:04:24;98660.44;;;16.22;59.56
21433;BME280;18592;49.708;10.900;2022-10-14T05:06:26;98664.56;;;16.20;59.50
21433;BME280;18592;49.708;10.900;2022-10-14T05:08:29;98666.50;;;16.19;59.48
21433;BME280;18592;49.708;10.900;2022-10-14T05:10:33;98665.97;;;16.17;59.39
21433;BME280;18592;49.708;10.900;2022-10-14T05:12:38;98654.72;;;16.14;59.53
21433;BME280;18592;49.708;10.900;2022-10-14T05:14:40;98668.47;;;16.14;59.58
21433;BME280;18592;49.708;10.900;2022-10-14T05:16:54;98662.41;;;16.12;59.50
21433;BME280;18592;49.708;10.900;2022-10-14T05:19:01;98662.19;;;16.08;59.75
21433;BME280;18592;49.708;10.900;2022-10-14T05:21:05;98661.34;;;16.08;59.54
21433;BME280;18592;49.708;10.900;2022-10-14T05:23:24;98661.66;;;16.06;59.71
21433;BME280;18592;49.708;10.900;2022-10-14T05:25:35;98658.06;;;16.06;59.71
21433;BME280;18592;49.708;10.900;2022-10-14T05:27:37;98656.41;;;16.05;59.64
21433;BME280;18592;49.708;10.900;2022-10-14T05:29:39;98655.59;;;16.04;59.82
21433;BME280;18592;49.708;10.900;2022-10-14T05:31:41;98663.84;;;16.04;59.82
21433;BME280;18592;49.708;10.900;2022-10-14T05:34:07;98662.47;;;16.02;59.74
21433;BME280;18592;49.708;10.900;2022-10-14T05:36:08;98658.63;;;16.03;59.81
21433;BME280;18592;49.708;10.900;2022-10-14T05:38:10;98657.81;;;16.02;59.74
21433;BME280;18592;49.708;10.900;2022-10-14T05:40:15;98659.47;;;16.03;59.78
21433;BME280;18592;49.708;10.900;2022-10-14T05:42:17;98666.59;;;16.04;59.73
21433;BME280;18592;49.708;10.900;2022-10-14T05:44:19;98672.91;;;16.05;59.74
21433;BME280;18592;49.708;10.900;2022-10-14T05:46:24;98665.50;;;16.05;59.64
21433;BME280;18592;49.708;10.900;2022-10-14T05:48:28;98663.56;;;16.06;59.63
21433;BME280;18592;49.708;10.900;2022-10-14T05:50:31;98659.16;;;16.05;59.64
21433;BME280;18592;49.708;10.900;2022-10-14T05:52:38;98669.06;;;16.06;59.56
21433;BME280;18592;49.708;10.900;2022-10-14T05:54:48;98671.81;;;16.06;59.66
21433;BME280;18592;49.708;10.900;2022-10-14T05:56:53;98678.94;;;16.07;59.64
21433;BME280;18592;49.708;10.900;2022-10-14T05:58:57;98671.53;;;16.07;59.48
21433;BME280;18592;49.708;10.900;2022-10-14T06:01:04;98675.94;;;16.08;59.46
21433;BME280;18592;49.708;10.900;2022-10-14T06:03:06;98677.56;;;16.09;59.38
21433;BME280;18592;49.708;10.900;2022-10-14T06:05:07;98672.88;;;16.10;59.40
21433;BME280;18592;49.708;10.900;2022-10-14T06:07:15;98674.00;;;16.09;59.54
21433;BME280;18592;49.708;10.900;2022-10-14T06:09:17;98677.28;;;16.11;59.55
21433;BME280;18592;49.708;10.900;2022-10-14T06:11:18;98673.41;;;16.12;59.50
21433;BME280;18592;49.708;10.900;2022-10-14T06:13:21;98676.72;;;16.14;59.53
21433;BME280;18592;49.708;10.900;2022-10-14T06:15:24;98672.84;;;16.15;59.39
21433;BME280;18592;49.708;10.900;2022-10-14T06:17:27;98669.84;;;16.16;59.50
21433;BME280;18592;49.708;10.900;2022-10-14T06:19:30;98670.63;;;16.17;59.38
21433;BME280;18592;49.708;10.900;2022-10-14T06:21:32;98672.31;;;16.18;59.33
21433;BME280;18592;49.708;10.900;2022-10-14T06:23:34;98672.31;;;16.18;59.37
21433;BME280;18592;49.708;10.900;2022-10-14T06:25:37;98673.13;;;16.18;59.33
21433;BME280;18592;49.708;10.900;2022-10-14T06:27:39;98672.00;;;16.19;59.33
21433;BME280;18592;49.708;10.900;2022-10-14T06:29:41;98667.31;;;16.20;59.45
21433;BME280;18592;49.708;10.900;2022-10-14T06:31:45;98663.47;;;16.21;59.18
21433;BME280;18592;49.708;10.900;2022-10-14T06:33:47;98662.66;;;16.20;59.38
21433;BME280;18592;49.708;10.900;2022-10-14T06:35:48;98657.97;;;16.21;59.24
21433;BME280;18592;49.708;10.900;2022-10-14T06:37:50;98662.66;;;16.20;59.44
21433;BME280;18592;49.708;10.900;2022-10-14T06:39:52;98662.66;;;16.20;59.48
21433;BME280;18592;49.708;10.900;2022-10-14T06:41:53;98662.66;;;16.20;59.21
21433;BME280;18592;49.708;10.900;2022-10-14T06:43:57;98661.81;;;16.20;59.40
21433;BME280;18592;49.708;10.900;2022-10-14T06:45:58;98669.25;;;16.19;59.43
21433;BME280;18592;49.708;10.900;2022-10-14T06:48:03;98659.91;;;16.20;59.40
21433;BME280;18592;49.708;10.900;2022-10-14T06:50:05;98671.72;;;16.21;59.35
21433;BME280;18592;49.708;10.900;2022-10-14T06:52:07;98657.97;;;16.21;59.60
21433;BME280;18592;49.708;10.900;2022-10-14T06:54:09;98665.09;;;16.22;59.40
21433;BME280;18592;49.708;10.900;2022-10-14T06:56:10;98664.00;;;16.23;59.48
21433;BME280;18592;49.708;10.900;2022-10-14T06:58:15;98664.00;;;16.23;59.51
21433;BME280;18592;49.708;10.900;2022-10-14T07:00:17;98665.94;;;16.22;59.68
21433;BME280;18592;49.708;10.900;2022-10-14T07:02:18;98661.78;;;16.25;59.57
21433;BME280;18592;49.708;10.900;2022-10-14T07:04:21;98668.41;;;16.24;59.96
21433;BME280;18592;49.708;10.900;2022-10-14T07:06:23;98663.44;;;16.26;59.63
21433;BME280;18592;49.708;10.900;2022-10-14T07:08:25;98665.06;;;16.27;59.70
21433;BME280;18592;49.708;10.900;2022-10-14T07:10:26;98670.31;;;16.28;59.73
21433;BME280;18592;49.708;10.900;2022-10-14T07:12:28;98672.75;;;16.30;59.74
21433;BME280;18592;49.708;10.900;2022-10-14T07:14:29;98668.63;;;16.32;59.64
21433;BME280;18592;49.708;10.900;2022-10-14T07:16:31;98668.34;;;16.34;59.74
21433;BME280;18592;49.708;10.900;2022-10-14T07:18:36;98671.91;;;16.34;59.82
21433;BME280;18592;49.708;10.900;2022-10-14T07:20:38;98669.41;;;16.38;59.77
21433;BME280;18592;49.708;10.900;2022-10-14T07:22:40;98664.44;;;16.40;59.81
21433;BME280;18592;49.708;10.900;2022-10-14T07:24:41;98672.44;;;16.41;59.87
21433;BME280;18592;49.708;10.900;2022-10-14T07:26:43;98671.31;;;16.42;59.65
21433;BME280;18592;49.708;10.900;2022-10-14T07:28:45;98669.63;;;16.46;59.86
21433;BME280;18592;49.708;10.900;2022-10-14T07:31:05;98674.84;;;16.48;59.98
21433;BME280;18592;49.708;10.900;2022-10-14T07:33:07;98676.19;;;16.50;59.93
21433;BME280;18592;49.708;10.900;2022-10-14T07:35:08;98678.41;;;16.54;60.10
21433;BME280;18592;49.708;10.900;2022-10-14T07:37:10;98682.53;;;16.56;60.06
21433;BME280;18592;49.708;10.900;2022-10-14T07:39:12;98683.06;;;16.58;60.08
21433;BME280;18592;49.708;10.900;2022-10-14T07:41:17;98680.84;;;16.60;60.17
21433;BME280;18592;49.708;10.900;2022-10-14T07:43:18;98681.09;;;16.64;60.15
21433;BME280;18592;49.708;10.900;2022-10-14T07:45:20;98674.19;;;16.66;60.21
21433;BME280;18592;49.708;10.900;2022-10-14T07:47:22;98681.88;;;16.69;60.22
21433;BME280;18592;49.708;10.900;2022-10-14T07:49:24;98674.69;;;16.73;60.30
21433;BME280;18592;49.708;10.900;2022-10-14T07:51:29;98672.44;;;16.75;60.30
21433;BME280;18592;49.708;10.900;2022-10-14T07:53:31;98677.38;;;16.78;60.18
21433;BME280;18592;49.708;10.900;2022-10-14T07:55:32;98675.41;;;16.84;60.41
21433;BME280;18592;49.708;10.900;2022-10-14T07:57:34;98677.06;;;16.85;60.51
21433;BME280;18592;49.708;10.900;2022-10-14T07:59:36;98687.22;;;16.89;60.52
21433;BME280;18592;49.708;10.900;2022-10-14T08:01:37;98673.69;;;16.93;60.67
21433;BME280;18592;49.708;10.900;2022-10-14T08:03:40;98672.81;;;16.97;60.53
21433;BME280;18592;49.708;10.900;2022-10-14T08:05:42;98674.72;;;17.02;60.59
21433;BME280;18592;49.708;10.900;2022-10-14T08:07:44;98660.63;;;17.03;60.60
21433;BME280;18592;49.708;10.900;2022-10-14T08:09:45;98665.56;;;17.06;60.85
21433;BME280;18592;49.708;10.900;2022-10-14T08:11:48;98664.69;;;17.11;60.68
21433;BME280;18592;49.708;10.900;2022-10-14T08:13:50;98670.44;;;17.14;60.67
21433;BME280;18592;49.708;10.900;2022-10-14T08:15:52;98667.13;;;17.18;60.80
21433;BME280;18592;49.708;10.900;2022-10-14T08:17:54;98669.81;;;17.23;60.85
21433;BME280;18592;49.708;10.900;2022-10-14T08:19:56;98670.88;;;17.27;60.83
21433;BME280;18592;49.708;10.900;2022-10-14T08:22:01;98674.69;;;17.31;60.88
21433;BME280;18592;49.708;10.900;2022-10-14T08:24:03;98665.56;;;17.35;60.96
21433;BME280;18592;49.708;10.900;2022-10-14T08:26:16;98672.41;;;17.38;61.51
21433;BME280;18592;49.708;10.900;2022-10-14T08:28:19;98657.44;;;17.44;61.40
21433;BME280;18592;49.708;10.900;2022-10-14T08:30:21;98665.97;;;17.47;61.30
21433;BME280;18592;49.708;10.900;2022-10-14T08:32:22;98664.81;;;17.53;61.38
21433;BME280;18592;49.708;10.900;2022-10-14T08:34:25;98663.94;;;17.58;61.27
21433;BME280;18592;49.708;10.900;2022-10-14T08:36:27;98664.41;;;17.65;61.27
21433;BME280;18592;49.708;10.900;2022-10-14T08:38:29;98664.88;;;17.72;61.13
21433;BME280;18592;49.708;10.900;2022-10-14T08:40:35;98662.03;;;17.77;61.06
21433;BME280;18592;49.708;10.900;2022-10-14T08:43:17;98663.91;;;17.82;61.34
21433;BME280;18592;49.708;10.900;2022-10-14T08:45:37;98664.66;;;17.87;61.09
21433;BME280;18592;49.708;10.900;2022-10-14T08:47:43;98665.13;;;17.94;61.04
21433;BME280;18592;49.708;10.900;2022-10-14T08:52:00;98658.13;;;18.02;61.02
21433;BME280;18592;49.708;10.900;2022-10-14T08:54:06;98650.91;;;18.06;61.14
21433;BME280;18592;49.708;10.900;2022-10-14T08:56:12;98654.44;;;18.11;61.01
21433;BME280;18592;49.708;10.900;2022-10-14T08:58:17;98662.63;;;18.16;61.24
21433;BME280;18592;49.708;10.900;2022-10-14T09:00:22;98651.53;;;18.21;61.03
21433;BME280;18592;49.708;10.900;2022-10-14T09:04:58;98651.56;;;18.35;60.96
21433;BME280;18592;49.708;10.900;2022-10-14T09:07:02;98640.19;;;18.42;60.89
21433;BME280;18592;49.708;10.900;2022-10-14T09:11:13;98640.84;;;18.52;61.06
21433;BME280;18592;49.708;10.900;2022-10-14T09:13:18;98640.47;;;18.59;60.88
21433;BME280;18592;49.708;10.900;2022-10-14T09:15:26;98654.19;;;18.64;61.37
21433;BME280;18592;49.708;10.900;2022-10-14T09:17:42;98645.00;;;18.68;61.34
21433;BME280;18592;49.708;10.900;2022-10-14T09:22:13;98636.47;;;18.83;60.92
21433;BME280;18592;49.708;10.900;2022-10-14T09:24:20;98635.25;;;18.89;61.00
21433;BME280;18592;49.708;10.900;2022-10-14T09:26:22;98636.50;;;18.97;60.73
21433;BME280;18592;49.708;10.900;2022-10-14T09:28:37;98639.97;;;19.02;60.81
21433;BME280;18592;49.708;10.900;2022-10-14T09:30:40;98632.94;;;19.10;60.61
21433;BME280;18592;49.708;10.900;2022-10-14T09:32:45;98635.09;;;19.13;60.88
21433;BME280;18592;49.708;10.900;2022-10-14T09:34:50;98633.06;;;19.19;61.04
21433;BME280;18592;49.708;10.900;2022-10-14T09:36:52;98633.47;;;19.26;60.99
21433;BME280;18592;49.708;10.900;2022-10-14T09:38:54;98631.44;;;19.31;60.70
21433;BME280;18592;49.708;10.900;2022-10-14T09:41:09;98635.53;;;19.34;60.81
21433;BME280;18592;49.708;10.900;2022-10-14T09:43:19;98635.19;;;19.40;60.65
21433;BME280;18592;49.708;10.900;2022-10-14T09:45:23;98637.84;;;19.45;60.65
21433;BME280;18592;49.708;10.900;2022-10-14T09:47:27;98636.59;;;19.51;60.55
21433;BME280;18592;49.708;10.900;2022-10-14T09:49:41;98637.41;;;19.52;60.40
21433;BME280;18592;49.708;10.900;2022-10-14T09:51:44;98634.88;;;19.55;60.29
21433;BME280;18592;49.708;10.900;2022-10-14T09:54:00;98628.81;;;19.53;60.23
21433;BME280;18592;49.708;10.900;2022-10-14T09:56:05;98634.22;;;19.58;60.06
21433;BME280;18592;49.708;10.900;2022-10-14T09:58:15;98627.81;;;19.63;60.00
21433;BME280;18592;49.708;10.900;2022-10-14T10:00:29;98618.06;;;19.66;60.23
21433;BME280;18592;49.708;10.900;2022-10-14T10:02:41;98622.16;;;19.68;60.27
21433;BME280;18592;49.708;10.900;2022-10-14T10:04:48;98621.22;;;19.73;60.19
21433;BME280;18592;49.708;10.900;2022-10-14T10:06:51;98628.59;;;19.77;60.03
21433;BME280;18592;49.708;10.900;2022-10-14T10:11:02;98617.53;;;19.91;60.43
21433;BME280;18592;49.708;10.900;2022-10-14T10:13:21;98604.91;;;19.98;60.79
21433;BME280;18592;49.708;10.900;2022-10-14T10:15:24;98603.84;;;20.08;60.32
21433;BME280;18592;49.708;10.900;2022-10-14T10:17:29;98588.13;;;20.17;60.43
21433;BME280;18592;49.708;10.900;2022-10-14T10:19:37;98589.56;;;20.28;60.81
21433;BME280;18592;49.708;10.900;2022-10-14T10:21:39;98587.88;;;20.41;60.69
21433;BME280;18592;49.708;10.900;2022-10-14T10:23:55;98578.16;;;20.52;61.20
21433;BME280;18592;49.708;10.900;2022-10-14T10:26:14;98578.72;;;20.62;61.13
21433;BME280;18592;49.708;10.900;2022-10-14T10:28:20;98576.22;;;20.74;60.63
21433;BME280;18592;49.708;10.900;2022-10-14T10:30:59;98570.41;;;20.84;60.56
21433;BME280;18592;49.708;10.900;2022-10-14T10:38:28;98559.19;;;21.20;60.58
21433;BME280;18592;49.708;10.900;2022-10-14T10:40:52;98562.47;;;21.31;60.57
21433;BME280;18592;49.708;10.900;2022-10-14T10:45:35;98554.41;;;21.51;60.23
21433;BME280;18592;49.708;10.900;2022-10-14T10:47:45;98551.97;;;21.59;60.05
21433;BME280;18592;49.708;10.900;2022-10-14T10:52:17;98551.84;;;21.72;59.49
21433;BME280;18592;49.708;10.900;2022-10-14T11:01:22;98536.06;;;21.90;58.55
21433;BME280;18592;49.708;10.900;2022-10-14T11:03:58;98546.50;;;21.93;58.59
21433;BME280;18592;49.708;10.900;2022-10-14T11:06:13;98537.19;;;21.97;58.74
21433;BME280;18592;49.708;10.900;2022-10-14T11:09:00;98525.94;;;22.02;58.62
21433;BME280;18592;49.708;10.900;2022-10-14T11:11:28;98518.28;;;22.08;58.63
21433;BME280;18592;49.708;10.900;2022-10-14T11:13:55;98509.28;;;22.11;58.41
21433;BME280;18592;49.708;10.900;2022-10-14T11:27:45;98490.97;;;22.36;57.76
21433;BME280;18592;49.708;10.900;2022-10-14T11:32:24;98496.00;;;22.42;57.31
21433;BME280;18592;49.708;10.900;2022-10-14T11:39:35;98479.97;;;22.48;57.20
21433;BME280;18592;49.708;10.900;2022-10-14T11:46:10;98477.84;;;22.53;57.09
21433;BME280;18592;49.708;10.900;2022-10-14T11:48:22;98470.34;;;22.54;56.42
21433;BME280;18592;49.708;10.900;2022-10-14T11:50:32;98473.09;;;22.54;56.43
21433;BME280;18592;49.708;10.900;2022-10-14T11:52:42;98473.09;;;22.54;56.33
21433;BME280;18592;49.708;10.900;2022-10-14T11:54:51;98466.38;;;22.55;56.52
21433;BME280;18592;49.708;10.900;2022-10-14T11:59:36;98454.13;;;22.56;56.16
21433;BME280;18592;49.708;10.900;2022-10-14T12:01:59;98465.25;;;22.56;56.25
21433;BME280;18592;49.708;10.900;2022-10-14T12:04:10;98459.69;;;22.56;56.15
21433;BME280;18592;49.708;10.900;2022-10-14T12:08:26;98453.31;;;22.55;55.59
21433;BME280;18592;49.708;10.900;2022-10-14T12:10:49;98455.28;;;22.55;55.50